Time;durP1;ratioP1;P1;durP2;ratioP2;P2;SDS_P1;SDS_P2;PMS_P1;PMS_P2;Temp;Humidity;BMP_temperature;BMP_pressure;BME280_temperature;BME280_humidity;BME280_pressure;Samples;Min_cycle;Max_cycle;Signal;HPM_P1;HPM_P2
2022/09/06 00:00:08;;;;;;;3.90;2.10;;;20.50;78.50;;;;;;5073433;28;20208;-59
2022/09/06 00:02:36;;;;;;;6.00;2.10;;;20.50;76.70;;;;;;5073677;28;20209;-59
2022/09/06 00:05:03;;;;;;;6.70;2.33;;;20.50;75.10;;;;;;5073482;28;20235;-59
2022/09/06 00:07:30;;;;;;;3.37;2.40;;;20.50;76.60;;;;;;5072839;28;20254;-59
2022/09/06 00:09:57;;;;;;;3.80;2.40;;;20.50;73.60;;;;;;5073083;28;20209;-59
2022/09/06 00:12:25;;;;;;;2.30;1.97;;;20.50;72.70;;;;;;5073189;28;20201;-59
2022/09/06 00:14:52;;;;;;;2.50;2.00;;;20.50;72.80;;;;;;5073326;28;20217;-59
2022/09/06 00:17:19;;;;;;;5.03;1.80;;;20.60;72.20;;;;;;5072985;28;20204;-59
2022/09/06 00:19:45;;;;;;;3.13;1.90;;;20.60;71.70;;;;;;5073176;28;20263;-59
2022/09/06 00:22:12;;;;;;;2.20;1.90;;;20.60;70.70;;;;;;5072693;28;20266;-57
2022/09/06 00:24:39;;;;;;;2.37;1.40;;;20.60;71.10;;;;;;5072581;28;20369;-57
2022/09/06 00:27:07;;;;;;;3.27;2.00;;;20.60;67.50;;;;;;5072833;28;20895;-59
2022/09/06 00:29:35;;;;;;;3.17;1.57;;;20.60;65.60;;;;;;5073015;28;20235;-59
2022/09/06 00:32:02;;;;;;;2.60;1.83;;;20.70;63.60;;;;;;5073012;28;20205;-59
2022/09/06 00:34:29;;;;;;;2.73;1.67;;;20.70;62.70;;;;;;5072804;28;20225;-59
2022/09/06 00:36:56;;;;;;;1.97;1.63;;;20.70;61.60;;;;;;5072498;28;20277;-59
2022/09/06 00:39:22;;;;;;;1.90;1.60;;;20.70;61.10;;;;;;5072280;28;20687;-58
2022/09/06 00:41:49;;;;;;;2.47;2.00;;;20.70;61.80;;;;;;5072532;28;20205;-59
2022/09/06 00:44:16;;;;;;;3.90;1.67;;;20.70;59.80;;;;;;5072589;28;20228;-57
2022/09/06 00:46:47;;;;;;;2.20;1.73;;;20.70;60.50;;;;;;5072453;28;20279;-59
2022/09/06 00:49:23;;;;;;;2.97;1.50;;;20.70;59.30;;;;;;5072441;28;20205;-59
2022/09/06 00:51:50;;;;;;;2.43;1.60;;;20.70;59.10;;;;;;5072515;28;20247;-59
2022/09/06 00:54:17;;;;;;;2.70;1.47;;;20.80;58.10;;;;;;5072343;28;20233;-59
2022/09/06 00:56:44;;;;;;;3.13;1.50;;;20.80;58.40;;;;;;5072509;28;20611;-59
2022/09/06 00:59:11;;;;;;;3.57;1.60;;;20.70;57.90;;;;;;5072474;28;20258;-59
2022/09/06 01:01:38;;;;;;;1.90;1.53;;;20.80;57.80;;;;;;5072469;28;20226;-59
2022/09/06 01:04:06;;;;;;;2.63;1.60;;;20.80;58.40;;;;;;5072247;28;20229;-59
2022/09/06 01:06:46;;;;;;;3.93;1.60;;;20.80;54.50;;;;;;5071776;28;20228;-58
2022/09/06 01:09:25;;;;;;;2.73;1.63;;;21.10;57.40;;;;;;5072264;28;20699;-58
2022/09/06 01:12:05;;;;;;;2.43;1.60;;;21.20;62.20;;;;;;5072332;28;20205;-59
2022/09/06 01:14:44;;;;;;;3.97;2.07;;;21.10;67.70;;;;;;5071990;28;20270;-59
2022/09/06 01:17:21;;;;;;;3.83;2.23;;;21.00;69.60;;;;;;5071777;28;20238;-58
2022/09/06 01:20:20;;;;;;;2.90;2.20;;;20.80;71.00;;;;;;5071480;28;20265;-59
2022/09/06 01:23:08;;;;;;;3.67;2.40;;;20.80;74.10;;;;;;5072207;28;20208;-56
2022/09/06 01:25:40;;;;;;;3.57;2.77;;;20.70;74.10;;;;;;5071988;28;20233;-58
2022/09/06 01:28:22;;;;;;;3.70;2.93;;;20.60;76.40;;;;;;5072020;28;20255;-59
2022/09/06 01:30:57;;;;;;;3.20;2.33;;;20.50;74.30;;;;;;5071880;28;20216;-59
2022/09/06 01:33:32;;;;;;;5.97;2.73;;;20.50;75.70;;;;;;5071923;28;20615;-57
2022/09/06 01:36:02;;;;;;;3.37;2.20;;;20.50;72.50;;;;;;5070864;28;20277;-57
2022/09/06 01:38:29;;;;;;;5.23;3.07;;;20.60;73.50;;;;;;5072092;28;20215;-59
2022/09/06 01:40:56;;;;;;;3.27;2.30;;;20.60;71.90;;;;;;5071988;28;20258;-56
2022/09/06 01:43:30;;;;;;;4.20;2.40;;;20.60;71.70;;;;;;5071852;28;20624;-58
2022/09/06 01:46:01;;;;;;;3.87;2.73;;;20.70;74.40;;;;;;5071399;28;20228;-58
2022/09/06 01:48:39;;;;;;;5.57;2.90;;;20.60;74.50;;;;;;5071735;28;20201;-59
2022/09/06 01:51:16;;;;;;;5.20;2.60;;;20.70;75.80;;;;;;5071358;28;20555;-60
2022/09/06 01:54:00;;;;;;;6.93;2.90;;;20.70;77.80;;;;;;5071639;28;20224;-57
2022/09/06 01:56:34;;;;;;;6.27;3.10;;;20.60;81.20;;;;;;5071537;28;20217;-60
2022/09/06 01:59:26;;;;;;;3.30;2.50;;;20.50;83.90;;;;;;5071749;28;20208;-59
2022/09/06 02:02:03;;;;;;;5.43;3.00;;;20.40;85.30;;;;;;5071225;28;20267;-59
2022/09/06 02:04:34;;;;;;;4.97;3.10;;;20.40;87.40;;;;;;5071605;28;20802;-60
2022/09/06 02:07:04;;;;;;;6.53;2.70;;;20.40;90.20;;;;;;5071262;28;20225;-60
2022/09/06 02:09:37;;;;;;;6.63;3.03;;;20.30;91.50;;;;;;5071690;28;20208;-57
2022/09/06 02:12:05;;;;;;;11.57;3.13;;;20.30;92.90;;;;;;5071580;28;20205;-57
2022/09/06 02:14:37;;;;;;;6.80;3.00;;;20.20;93.10;;;;;;5071464;28;20239;-59
2022/09/06 02:17:06;;;;;;;7.67;3.20;;;20.10;94.40;;;;;;5071406;28;20205;-56
2022/09/06 02:19:38;;;;;;;5.53;3.27;;;20.10;99.50;;;;;;5071432;28;20729;-58
2022/09/06 02:22:09;;;;;;;6.80;2.97;;;20.00;99.90;;;;;;5071549;28;20239;-57
2022/09/06 02:24:39;;;;;;;5.27;3.13;;;19.90;99.90;;;;;;5071292;28;20278;-57
2022/09/06 02:27:06;;;;;;;4.70;3.23;;;19.80;99.90;;;;;;5071048;28;20225;-57
2022/09/06 02:29:35;;;;;;;7.73;3.53;;;19.70;99.90;;;;;;5071330;28;20610;-59
2022/09/06 02:32:11;;;;;;;7.63;4.17;;;19.70;99.90;;;;;;5071207;28;20205;-57
2022/09/06 02:34:39;;;;;;;4.43;3.50;;;19.60;99.90;;;;;;5071238;28;20354;-59
2022/09/06 02:37:06;;;;;;;7.40;3.70;;;19.50;99.90;;;;;;5071011;28;20585;-59
2022/09/06 02:39:33;;;;;;;9.63;4.10;;;19.50;99.90;;;;;;5071348;28;20292;-57
2022/09/06 02:42:00;;;;;;;10.87;4.37;;;19.50;99.90;;;;;;5071277;28;20209;-59
2022/09/06 02:44:27;;;;;;;13.63;4.30;;;19.40;99.90;;;;;;5071098;28;20715;-58
2022/09/06 02:46:55;;;;;;;7.30;3.80;;;19.40;99.90;;;;;;5073666;28;20282;-56
2022/09/06 02:49:21;;;;;;;6.00;4.13;;;19.30;99.90;;;;;;5074930;28;20274;-58
2022/09/06 02:51:48;;;;;;;5.73;3.83;;;19.30;99.90;;;;;;5074832;28;20205;-60
2022/09/06 02:54:15;;;;;;;9.87;4.50;;;19.10;1.00;;;;;;5074750;28;20236;-60
2022/09/06 02:56:42;;;;;;;7.33;4.33;;;19.00;1.00;;;;;;5074708;28;20201;-60
2022/09/06 02:59:08;;;;;;;8.03;4.30;;;18.80;1.00;;;;;;5074521;28;20686;-59
2022/09/06 03:01:35;;;;;;;10.13;4.07;;;18.90;1.00;;;;;;5074579;28;20687;-59
2022/09/06 03:04:03;;;;;;;6.30;3.80;;;18.80;1.00;;;;;;5074407;28;20776;-58
2022/09/06 03:06:30;;;;;;;5.83;3.73;;;18.80;18.80;;;;;;5075406;28;20645;-59
2022/09/06 03:08:58;;;;;;;6.37;4.37;;;18.80;79.00;;;;;;5075044;28;20201;-59
2022/09/06 03:11:25;;;;;;;5.93;4.27;;;18.70;99.90;;;;;;5074841;28;20201;-57
2022/09/06 03:13:52;;;;;;;8.33;4.43;;;18.60;99.90;;;;;;5074437;28;20221;-60
2022/09/06 03:16:19;;;;;;;7.83;4.40;;;18.60;99.90;;;;;;5074257;28;20201;-57
2022/09/06 03:18:46;;;;;;;9.30;4.60;;;18.60;99.90;;;;;;5074275;28;20258;-57
2022/09/06 03:21:14;;;;;;;5.47;4.27;;;18.60;99.90;;;;;;5074258;28;20201;-58
2022/09/06 03:23:41;;;;;;;6.73;4.30;;;18.70;99.90;;;;;;5074213;28;20304;-58
2022/09/06 03:26:08;;;;;;;8.37;4.23;;;18.60;1.00;;;;;;5073846;28;20217;-57
2022/09/06 03:28:34;;;;;;;6.93;3.90;;;18.50;99.90;;;;;;5073953;28;20667;-59
2022/09/06 03:31:01;;;;;;;8.97;4.30;;;18.60;99.90;;;;;;5074261;28;20563;-59
2022/09/06 03:33:28;;;;;;;6.13;4.27;;;18.50;99.90;;;;;;5074147;28;20209;-59
2022/09/06 03:35:57;;;;;;;11.57;4.47;;;18.50;99.90;;;;;;5073746;28;20255;-59
2022/09/06 03:38:26;;;;;;;5.50;4.23;;;18.50;99.90;;;;;;5073851;28;20731;-56
2022/09/06 03:40:54;;;;;;;6.60;4.63;;;18.60;99.90;;;;;;5074006;28;20201;-57
2022/09/06 03:43:22;;;;;;;6.60;3.83;;;18.60;99.90;;;;;;5074094;28;20299;-59
2022/09/06 03:45:51;;;;;;;6.03;4.30;;;18.60;99.90;;;;;;5073628;28;20225;-60
2022/09/06 03:48:18;;;;;;;8.33;4.50;;;18.60;99.90;;;;;;5073748;28;20335;-58
2022/09/06 03:50:46;;;;;;;10.83;4.60;;;18.60;99.90;;;;;;5074022;28;20209;-60
2022/09/06 03:53:13;;;;;;;7.00;3.90;;;18.70;99.90;;;;;;5073640;28;20205;-60
2022/09/06 03:55:44;;;;;;;5.20;3.93;;;18.70;99.90;;;;;;5073315;28;20240;-60
2022/09/06 03:58:11;;;;;;;8.03;4.47;;;18.80;99.90;;;;;;5072466;28;20204;-59
2022/09/06 04:00:38;;;;;;;4.87;3.90;;;18.80;99.90;;;;;;5073494;28;20201;-60
2022/09/06 04:03:04;;;;;;;6.50;4.13;;;18.80;99.90;;;;;;5073168;28;20208;-60
2022/09/06 04:05:31;;;;;;;7.17;4.00;;;18.80;99.90;;;;;;5073129;28;20274;-60
2022/09/06 04:07:58;;;;;;;9.07;4.00;;;18.80;99.90;;;;;;5072982;28;20620;-59
2022/09/06 04:10:24;;;;;;;5.27;4.47;;;18.60;99.90;;;;;;5073810;28;20209;-59
2022/09/06 04:12:52;;;;;;;5.97;4.47;;;18.50;99.90;;;;;;5073298;28;20274;-59
2022/09/06 04:15:19;;;;;;;8.97;3.90;;;18.50;1.00;;;;;;5073181;28;20225;-57
2022/09/06 04:17:46;;;;;;;5.97;4.37;;;18.60;99.90;;;;;;5072891;28;20197;-57
2022/09/06 04:20:14;;;;;;;6.30;4.67;;;18.60;99.90;;;;;;5073405;28;20692;-58
2022/09/06 04:22:40;;;;;;;7.67;4.30;;;18.50;1.00;;;;;;5073323;28;20266;-57
2022/09/06 04:25:08;;;;;;;7.70;5.30;;;18.40;99.90;;;;;;5073331;28;20233;-55
2022/09/06 04:27:35;;;;;;;9.37;4.10;;;18.40;99.90;;;;;;5072909;28;20228;-57
2022/09/06 04:30:03;;;;;;;6.60;3.70;;;18.50;99.90;;;;;;5072904;28;20209;-56
2022/09/06 04:32:31;;;;;;;13.30;4.53;;;18.50;32.40;;;;;;5073151;28;20282;-57
2022/09/06 04:34:58;;;;;;;7.63;3.87;;;18.50;1.00;;;;;;5072959;28;20229;-58
2022/09/06 04:37:24;;;;;;;8.10;3.67;;;18.50;99.90;;;;;;5072796;28;20748;-58
2022/09/06 04:39:51;;;;;;;12.00;3.83;;;18.50;21.00;;;;;;5072884;28;20209;-58
2022/09/06 04:42:17;;;;;;;5.60;3.67;;;18.50;1.00;;;;;;5072436;28;20209;-57
2022/09/06 04:44:44;;;;;;;8.90;4.00;;;18.50;25.70;;;;;;5072512;28;20232;-58
2022/09/06 04:47:14;;;;;;;6.50;3.80;;;18.50;99.90;;;;;;5072223;28;20640;-57
2022/09/06 04:49:41;;;;;;;6.63;3.90;;;18.60;99.90;;;;;;5073131;28;20295;-58
2022/09/06 04:52:07;;;;;;;5.70;3.70;;;18.60;1.00;;;;;;5072667;28;20258;-57
2022/09/06 04:54:34;;;;;;;5.80;3.73;;;18.60;99.90;;;;;;5072300;28;20252;-58
2022/09/06 04:57:01;;;;;;;7.90;3.37;;;18.60;1.00;;;;;;5072303;28;20617;-58
2022/09/06 04:59:27;;;;;;;6.07;3.40;;;18.60;99.90;;;;;;5072301;28;20564;-58
2022/09/06 05:01:55;;;;;;;5.97;3.43;;;18.60;99.90;;;;;;5072103;28;20262;-58
2022/09/06 05:04:23;;;;;;;6.53;4.00;;;18.60;13.80;;;;;;5071952;28;20703;-58
2022/09/06 05:06:50;;;;;;;6.80;3.47;;;18.60;1.00;;;;;;5072202;28;20221;-57
2022/09/06 05:09:17;;;;;;;7.53;3.20;;;18.70;99.90;;;;;;5072273;28;20251;-56
2022/09/06 05:11:43;;;;;;;9.23;6.60;;;18.70;1.00;;;;;;5072189;28;20216;-57
2022/09/06 05:14:10;;;;;;;6.43;3.70;;;18.70;1.00;;;;;;5071946;28;20229;-60
2022/09/06 05:16:36;;;;;;;8.23;4.03;;;18.70;1.00;;;;;;5071858;28;20202;-60
2022/09/06 05:19:03;;;;;;;7.07;3.73;;;18.70;1.00;;;;;;5072219;28;20209;-60
2022/09/06 05:21:31;;;;;;;3.50;3.17;;;18.60;1.00;;;;;;5072208;28;20624;-60
2022/09/06 05:23:58;;;;;;;5.23;3.23;;;18.60;1.00;;;;;;5072085;28;20229;-60
2022/09/06 05:26:24;;;;;;;10.80;3.83;;;18.60;1.00;;;;;;5071611;28;20726;-60
2022/09/06 05:28:51;;;;;;;5.50;3.37;;;18.70;1.00;;;;;;5071909;28;20212;-60
2022/09/06 05:31:26;;;;;;;8.73;3.50;;;18.70;1.00;;;;;;5072071;28;20548;-60
2022/09/06 05:33:53;;;;;;;5.03;3.30;;;18.80;1.00;;;;;;5072161;28;20211;-60
2022/09/06 05:36:22;;;;;;;6.97;3.63;;;18.80;1.00;;;;;;5071889;28;20197;-60
2022/09/06 05:38:50;;;;;;;6.17;3.63;;;18.80;1.00;;;;;;5071447;28;20582;-60
2022/09/06 05:41:17;;;;;;;6.40;3.30;;;18.90;1.00;;;;;;5071692;28;20216;-60
2022/09/06 05:43:43;;;;;;;5.30;3.40;;;18.90;1.00;;;;;;5071410;28;20204;-60
2022/09/06 05:46:10;;;;;;;5.57;3.20;;;18.80;99.90;;;;;;5071668;28;20262;-60
2022/09/06 05:48:37;;;;;;;14.63;3.83;;;18.80;99.90;;;;;;5071791;28;20205;-60
2022/09/06 05:51:06;;;;;;;4.27;3.23;;;18.90;99.90;;;;;;5071774;28;20205;-60
2022/09/06 05:53:37;;;;;;;4.33;3.17;;;18.90;99.90;;;;;;5071532;28;20645;-60
2022/09/06 05:56:06;;;;;;;3.97;3.00;;;18.90;99.90;;;;;;5071470;28;20266;-60
2022/09/06 05:58:32;;;;;;;5.10;3.00;;;18.90;99.90;;;;;;5071740;28;20262;-60
2022/09/06 06:01:07;;;;;;;4.50;3.40;;;18.80;99.90;;;;;;5071976;28;20204;-57
2022/09/06 06:03:33;;;;;;;4.60;3.00;;;18.80;99.90;;;;;;5071500;28;20208;-60
2022/09/06 06:06:00;;;;;;;5.60;3.10;;;18.80;99.90;;;;;;5071656;28;20229;-59
2022/09/06 06:08:27;;;;;;;4.70;3.63;;;18.80;99.90;;;;;;5071534;28;20715;-60
2022/09/06 06:10:57;;;;;;;5.23;3.10;;;18.90;99.90;;;;;;5071633;28;20668;-58
2022/09/06 06:13:26;;;;;;;3.77;3.30;;;18.90;99.90;;;;;;5071866;28;20209;-59
2022/09/06 06:15:53;;;;;;;6.17;3.40;;;18.90;99.90;;;;;;5071466;28;20221;-60
2022/09/06 06:18:20;;;;;;;5.73;3.43;;;18.90;99.90;;;;;;5071642;28;20201;-60
2022/09/06 06:20:46;;;;;;;4.17;3.17;;;19.00;99.90;;;;;;5072685;28;20224;-60
2022/09/06 06:23:14;;;;;;;4.73;3.20;;;19.00;99.90;;;;;;5075195;28;20675;-60
2022/09/06 06:25:41;;;;;;;5.47;3.20;;;19.10;99.90;;;;;;5075247;28;20590;-57
2022/09/06 06:28:08;;;;;;;6.00;3.20;;;19.20;99.90;;;;;;5075182;28;20641;-60
2022/09/06 06:30:35;;;;;;;4.30;3.30;;;19.20;99.20;;;;;;5075407;28;20208;-60
2022/09/06 06:33:02;;;;;;;6.17;3.03;;;19.30;99.90;;;;;;5075295;28;20247;-59
2022/09/06 06:35:29;;;;;;;3.93;3.10;;;19.30;33.40;;;;;;5075001;28;20282;-59
2022/09/06 06:37:55;;;;;;;7.07;3.27;;;19.40;9.90;;;;;;5074703;28;20205;-59
2022/09/06 06:40:22;;;;;;;4.73;3.30;;;19.40;1.00;;;;;;5075279;28;20240;-60
2022/09/06 06:42:49;;;;;;;3.67;2.70;;;19.50;1.00;;;;;;5075314;28;20205;-60
2022/09/06 06:45:15;;;;;;;5.30;2.97;;;19.50;1.00;;;;;;5076600;28;20232;-60
2022/09/06 06:47:43;;;;;;;4.63;3.10;;;19.60;1.00;;;;;;5077551;28;20266;-60
2022/09/06 06:50:10;;;;;;;7.17;3.23;;;19.60;1.00;;;;;;5076837;28;20209;-61
2022/09/06 06:52:38;;;;;;;6.40;2.90;;;19.70;1.00;;;;;;5074758;28;20656;-60
2022/09/06 06:55:05;;;;;;;4.83;3.00;;;19.70;1.00;;;;;;5074482;28;20624;-60
2022/09/06 06:57:32;;;;;;;4.63;3.03;;;19.80;1.00;;;;;;5074699;28;20201;-60
2022/09/06 06:59:58;;;;;;;5.73;3.10;;;19.90;1.00;;;;;;5074819;28;20205;-60
2022/09/06 07:02:25;;;;;;;3.97;2.80;;;20.00;1.00;;;;;;5074582;28;20213;-60
2022/09/06 07:04:53;;;;;;;8.40;2.83;;;20.10;99.90;;;;;;5074427;28;20286;-61
2022/09/06 07:07:19;;;;;;;8.20;3.20;;;20.30;99.90;;;;;;5074387;28;20225;-61
2022/09/06 07:09:46;;;;;;;8.03;3.10;;;20.30;99.90;;;;;;5074288;28;20213;-61
2022/09/06 07:12:13;;;;;;;5.57;2.90;;;20.40;99.90;;;;;;5074442;28;20209;-61
2022/09/06 07:14:39;;;;;;;3.17;2.50;;;20.60;99.90;;;;;;5074292;28;20641;-61
2022/09/06 07:17:06;;;;;;;3.30;2.63;;;20.70;99.90;;;;;;5074209;28;20263;-61
2022/09/06 07:19:32;;;;;;;5.73;2.73;;;20.80;99.90;;;;;;5074106;28;20266;-61
2022/09/06 07:22:00;;;;;;;3.10;2.50;;;20.90;99.90;;;;;;5074589;28;20625;-61
2022/09/06 07:24:27;;;;;;;4.93;2.73;;;21.10;99.90;;;;;;5074155;28;20229;-61
2022/09/06 07:26:53;;;;;;;4.77;2.37;;;21.20;99.90;;;;;;5074139;28;20224;-60
2022/09/06 07:29:20;;;;;;;3.13;2.27;;;21.40;99.90;;;;;;5074477;28;20274;-60
2022/09/06 07:31:46;;;;;;;4.27;2.27;;;21.50;99.90;;;;;;5073649;28;20205;-60
2022/09/06 07:34:13;;;;;;;8.27;2.27;;;21.70;99.90;;;;;;5073434;28;20599;-60
2022/09/06 07:36:40;;;;;;;4.23;1.67;;;21.80;99.90;;;;;;5074029;28;20585;-59
2022/09/06 07:39:08;;;;;;;3.07;2.00;;;21.90;99.90;;;;;;5074070;28;20201;-60
2022/09/06 07:41:34;;;;;;;3.13;2.20;;;22.00;99.90;;;;;;5073872;28;20208;-60
2022/09/06 07:44:01;;;;;;;3.07;1.60;;;22.10;99.90;;;;;;5073946;28;20784;-60
2022/09/06 07:46:28;;;;;;;4.80;1.77;;;22.30;99.90;;;;;;5073465;28;20267;-60
2022/09/06 07:48:54;;;;;;;5.30;1.93;;;22.40;99.90;;;;;;5073976;28;20274;-61
2022/09/06 07:51:22;;;;;;;6.60;1.70;;;22.50;99.90;;;;;;5073689;28;20209;-59
2022/09/06 07:53:51;;;;;;;4.90;1.40;;;22.60;99.90;;;;;;5073400;28;20270;-61
2022/09/06 07:56:21;;;;;;;4.87;3.73;;;22.70;99.90;;;;;;5073268;28;20668;-61
2022/09/06 07:58:48;;;;;;;3.27;1.67;;;22.80;99.90;;;;;;5073624;28;20205;-58
2022/09/06 08:01:30;;;;;;;2.57;1.60;;;23.00;99.90;;;;;;5073258;28;20266;-61
2022/09/06 08:03:58;;;;;;;2.77;1.20;;;23.10;99.90;;;;;;5073579;28;20208;-61
2022/09/06 08:06:26;;;;;;;2.57;1.47;;;23.30;99.90;;;;;;5073263;28;20292;-61
2022/09/06 08:08:53;;;;;;;3.37;1.30;;;23.40;99.90;;;;;;5073291;28;20233;-61
2022/09/06 08:11:22;;;;;;;4.60;1.50;;;23.60;99.90;;;;;;5073289;28;20209;-59
2022/09/06 08:13:49;;;;;;;2.70;1.40;;;23.70;99.90;;;;;;5073100;28;20205;-60
2022/09/06 08:16:16;;;;;;;1.80;1.20;;;23.90;99.90;;;;;;5073269;28;20209;-60
2022/09/06 08:18:43;;;;;;;2.07;1.47;;;24.00;99.90;;;;;;5073205;28;20197;-60
2022/09/06 08:21:11;;;;;;;1.97;1.20;;;24.20;99.90;;;;;;5073098;28;20201;-60
2022/09/06 08:23:38;;;;;;;3.00;1.53;;;24.20;99.90;;;;;;5072910;28;20247;-60
2022/09/06 08:26:05;;;;;;;2.97;1.20;;;24.30;99.90;;;;;;5072653;28;20201;-60
2022/09/06 08:28:33;;;;;;;3.63;1.33;;;24.40;99.90;;;;;;5072873;28;20235;-60
2022/09/06 08:31:07;;;;;;;2.10;1.07;;;24.40;99.90;;;;;;5072849;28;20676;-60
2022/09/06 08:33:34;;;;;;;2.63;1.30;;;24.60;99.90;;;;;;5072996;28;20259;-62
2022/09/06 08:36:00;;;;;;;4.93;1.50;;;24.70;99.90;;;;;;5072564;28;20577;-60
2022/09/06 08:38:27;;;;;;;3.10;1.60;;;24.80;99.90;;;;;;5072652;28;20201;-60
2022/09/06 08:41:04;;;;;;;4.30;1.30;;;24.90;99.90;;;;;;5072504;28;20679;-60
2022/09/06 08:43:32;;;;;;;1.57;1.37;;;25.00;99.90;;;;;;5072515;28;20201;-60
2022/09/06 08:45:59;;;;;;;1.50;1.00;;;25.20;99.90;;;;;;5072229;28;20229;-60
2022/09/06 08:48:29;;;;;;;1.30;1.00;;;25.10;99.90;;;;;;5072565;28;20577;-60
2022/09/06 08:51:20;;;;;;;3.90;1.40;;;25.10;99.90;;;;;;5072553;28;20205;-60
2022/09/06 08:53:54;;;;;;;4.53;1.47;;;25.20;99.90;;;;;;5055686;28;20262;-60
2022/09/06 08:56:25;;;;;;;2.23;1.30;;;25.30;99.90;;;;;;5072186;28;20204;-60
2022/09/06 08:59:04;;;;;;;1.67;1.10;;;25.40;99.90;;;;;;5072648;28;20237;-60
2022/09/06 09:01:40;;;;;;;1.20;1.10;;;25.50;99.90;;;;;;5072546;28;20233;-61
2022/09/06 09:04:13;;;;;;;1.37;1.10;;;25.70;99.90;;;;;;5072597;28;20224;-61
2022/09/06 09:06:40;;;;;;;1.50;0.97;;;25.80;99.90;;;;;;5071918;28;20243;-60
2022/09/06 09:09:08;;;;;;;3.27;1.03;;;25.90;99.90;;;;;;5072253;28;20294;-61
2022/09/06 09:11:36;;;;;;;1.93;0.93;;;25.90;99.90;;;;;;5072153;28;20209;-60
2022/09/06 09:14:11;;;;;;;2.30;0.90;;;26.00;99.90;;;;;;5072302;28;20225;-60
2022/09/06 09:16:37;;;;;;;5.23;1.23;;;26.00;99.90;;;;;;5072050;28;20208;-61
2022/09/06 09:19:06;;;;;;;3.10;0.90;;;26.00;99.90;;;;;;5072290;28;20274;-60
2022/09/06 09:21:36;;;;;;;2.53;1.03;;;26.00;99.90;;;;;;5072122;28;20201;-60
2022/09/06 09:24:05;;;;;;;1.50;0.70;;;26.10;99.90;;;;;;5072058;28;20225;-60
2022/09/06 09:26:42;;;;;;;2.07;1.23;;;26.00;99.20;;;;;;5071828;28;20205;-60
2022/09/06 09:29:12;;;;;;;3.17;0.80;;;26.10;99.90;;;;;;5072333;28;20646;-60
2022/09/06 09:31:41;;;;;;;1.70;0.80;;;26.10;99.90;;;;;;5072172;28;20209;-60
2022/09/06 09:34:12;;;;;;;1.00;0.90;;;26.20;99.90;;;;;;5072127;28;20271;-61
2022/09/06 09:36:39;;;;;;;0.77;0.70;;;26.30;99.90;;;;;;5071376;28;20209;-60
2022/09/06 09:39:10;;;;;;;1.33;1.17;;;26.30;99.90;;;;;;5071647;28;20204;-60
2022/09/06 09:41:40;;;;;;;1.53;0.97;;;26.30;99.90;;;;;;5072069;28;20283;-60
2022/09/06 09:44:16;;;;;;;0.83;0.77;;;26.30;99.90;;;;;;5071914;28;20306;-60
2022/09/06 09:46:43;;;;;;;5.77;1.10;;;26.40;99.90;;;;;;5071855;28;20205;-60
2022/09/06 09:49:12;;;;;;;4.77;1.00;;;26.50;99.90;;;;;;5072139;28;20277;-60
2022/09/06 09:51:41;;;;;;;3.80;1.00;;;26.40;99.90;;;;;;5071922;28;20631;-60
2022/09/06 09:54:10;;;;;;;3.17;1.00;;;26.40;99.90;;;;;;5071777;28;20365;-60
2022/09/06 09:56:45;;;;;;;1.77;1.00;;;26.50;99.80;;;;;;5070896;28;20227;-59
2022/09/06 09:59:22;;;;;;;3.23;0.90;;;26.50;99.90;;;;;;5071875;28;20230;-60
2022/09/06 10:01:49;;;;;;;1.73;0.90;;;26.50;99.90;;;;;;5072102;28;20204;-59
2022/09/06 10:04:24;;;;;;;1.67;0.83;;;26.70;99.90;;;;;;5071710;28;20239;-60
2022/09/06 10:06:50;;;;;;;3.43;0.90;;;26.70;99.90;;;;;;5071499;28;20204;-60
2022/09/06 10:09:21;;;;;;;4.17;0.90;;;26.70;99.70;;;;;;5071636;28;20272;-60
2022/09/06 10:11:54;;;;;;;2.47;0.97;;;26.90;99.90;;;;;;5071501;28;20209;-58
2022/09/06 10:14:27;;;;;;;2.00;0.97;;;26.80;99.90;;;;;;5071583;28;20225;-57
2022/09/06 10:16:54;;;;;;;2.60;0.60;;;26.70;99.90;;;;;;5071013;28;20205;-59
2022/09/06 10:19:24;;;;;;;1.57;0.83;;;26.80;99.30;;;;;;5071472;28;20627;-59
2022/09/06 10:21:55;;;;;;;1.93;1.20;;;27.00;99.90;;;;;;5071576;28;20251;-60
2022/09/06 10:24:30;;;;;;;1.37;0.97;;;27.10;99.60;;;;;;5071352;28;20229;-58
2022/09/06 10:27:00;;;;;;;1.33;0.80;;;27.00;99.90;;;;;;5071174;28;20262;-60
2022/09/06 10:29:36;;;;;;;2.30;0.80;;;27.10;99.90;;;;;;5072292;28;20575;-61
2022/09/06 10:32:17;;;;;;;0.97;0.87;;;27.20;99.60;;;;;;5072810;28;20200;-61
2022/09/06 10:35:20;;;;;;;2.27;0.80;;;27.30;99.50;;;;;;5072308;28;20244;-60
2022/09/06 10:38:07;;;;;;;2.63;0.90;;;27.50;98.40;;;;;;5071198;28;20204;-60
2022/09/06 10:40:42;;;;;;;2.83;1.00;;;27.50;99.40;;;;;;5071170;28;20205;-60
2022/09/06 10:43:17;;;;;;;3.67;1.10;;;27.50;99.90;;;;;;5071237;28;20204;-59
2022/09/06 10:45:53;;;;;;;2.57;0.87;;;27.60;99.90;;;;;;5071038;28;20225;-59
2022/09/06 10:48:25;;;;;;;1.13;0.93;;;27.70;99.90;;;;;;5071115;28;20222;-58
2022/09/06 10:50:56;;;;;;;4.17;1.00;;;27.80;99.90;;;;;;5071413;28;20205;-58
2022/09/06 10:53:32;;;;;;;2.20;1.10;;;27.70;99.90;;;;;;5071213;28;20716;-60
2022/09/06 10:56:04;;;;;;;1.63;1.00;;;27.70;99.90;;;;;;5070948;28;20229;-60
2022/09/06 10:58:34;;;;;;;3.87;0.90;;;27.60;99.90;;;;;;5070941;28;20202;-60
2022/09/06 11:01:02;;;;;;;3.43;1.00;;;27.80;99.90;;;;;;5071264;28;20282;-59
2022/09/06 11:03:34;;;;;;;1.47;0.93;;;27.90;99.90;;;;;;5070751;28;20687;-59
2022/09/06 11:06:05;;;;;;;1.00;0.80;;;27.80;99.90;;;;;;5070537;28;20259;-58
2022/09/06 11:08:40;;;;;;;1.27;1.00;;;27.80;99.90;;;;;;5073993;28;20274;-59
2022/09/06 11:11:13;;;;;;;1.97;1.00;;;27.90;99.90;;;;;;5073309;28;20213;-59
2022/09/06 11:13:39;;;;;;;1.83;0.90;;;28.00;99.90;;;;;;5070422;28;20200;-59
2022/09/06 11:16:13;;;;;;;6.90;1.07;;;28.10;99.90;;;;;;5074282;28;20205;-60
2022/09/06 11:18:45;;;;;;;6.03;1.30;;;28.00;99.90;;;;;;5073717;28;20201;-60
2022/09/06 11:21:41;;;;;;;2.60;1.03;;;28.10;99.90;;;;;;5067967;28;20304;-61
2022/09/06 11:24:12;;;;;;;2.97;1.17;;;28.10;99.90;;;;;;5023947;28;20280;-60
2022/09/06 11:26:52;;;;;;;1.17;1.00;;;28.20;99.90;;;;;;5053451;28;20206;-61
2022/09/06 11:29:22;;;;;;;1.73;1.13;;;28.40;99.90;;;;;;5056605;28;20217;-61
2022/09/06 11:31:54;;;;;;;0.97;0.87;;;28.20;99.90;;;;;;5073102;28;20270;-61
2022/09/06 11:34:24;;;;;;;1.53;1.10;;;28.30;99.90;;;;;;5072768;28;20228;-61
2022/09/06 11:36:52;;;;;;;1.90;0.97;;;28.40;99.90;;;;;;5072964;28;20633;-65
2022/09/06 11:39:29;;;;;;;1.97;0.90;;;28.20;99.90;;;;;;5073163;28;20205;-63
2022/09/06 11:41:56;;;;;;;1.87;0.90;;;28.40;99.90;;;;;;5073252;28;20240;-62
2022/09/06 11:44:52;;;;;;;4.37;1.10;;;28.50;99.90;;;;;;5072805;28;20220;-62
2022/09/06 11:47:48;;;;;;;4.60;1.20;;;28.30;99.90;;;;;;5073112;28;20219;-61
2022/09/06 11:51:01;;;;;;;3.77;0.87;;;28.60;99.90;;;;;;5026221;28;20282;-63
2022/09/06 11:53:29;;;;;;;1.77;0.97;;;28.70;99.90;;;;;;5072893;28;20254;-56
2022/09/06 11:56:12;;;;;;;1.70;1.00;;;28.20;99.90;;;;;;5072480;28;20297;-59
2022/09/06 11:58:51;;;;;;;1.00;0.90;;;28.30;99.90;;;;;;5072933;28;20209;-60
2022/09/06 12:01:36;;;;;;;2.93;1.07;;;28.20;99.30;;;;;;5072206;28;20558;-61
2022/09/06 12:04:09;;;;;;;1.37;1.00;;;28.30;99.70;;;;;;5071950;28;20228;-65
2022/09/06 12:06:41;;;;;;;2.33;1.00;;;28.40;99.90;;;;;;5072467;28;20189;-63
2022/09/06 12:09:29;;;;;;;3.80;1.10;;;28.70;99.90;;;;;;5072407;28;20225;-62
2022/09/06 12:11:57;;;;;;;3.13;1.00;;;28.90;99.90;;;;;;5072576;28;20274;-60
2022/09/06 12:14:33;;;;;;;2.90;1.30;;;28.90;99.90;;;;;;5072415;28;20607;-62
2022/09/06 12:17:27;;;;;;;2.87;1.40;;;28.90;99.90;;;;;;5072453;28;20266;-65
2022/09/06 12:20:05;;;;;;;3.53;1.10;;;29.00;99.90;;;;;;5070550;28;20201;-63
2022/09/06 12:22:54;;;;;;;3.67;1.07;;;28.90;99.90;;;;;;5072536;28;20634;-63
2022/09/06 12:25:53;;;;;;;2.47;1.33;;;28.80;99.90;;;;;;5072372;28;20294;-62
2022/09/06 12:28:35;;;;;;;2.03;1.20;;;28.90;99.90;;;;;;5071932;28;20205;-59
2022/09/06 12:31:19;;;;;;;3.13;1.20;;;29.00;99.90;;;;;;5072288;28;20208;-59
2022/09/06 12:33:47;;;;;;;2.57;1.27;;;29.00;99.90;;;;;;5071631;28;20209;-60
2022/09/06 12:36:18;;;;;;;3.57;1.03;;;28.90;99.90;;;;;;5071924;28;20204;-60
2022/09/06 12:38:54;;;;;;;4.43;1.17;;;28.90;99.90;;;;;;5072058;28;20679;-60
2022/09/06 12:41:22;;;;;;;5.37;1.23;;;29.10;99.90;;;;;;5072185;28;20203;-59
2022/09/06 12:43:49;;;;;;;3.13;1.30;;;29.30;99.90;;;;;;5071838;28;20211;-59
2022/09/06 12:46:16;;;;;;;2.77;1.70;;;29.40;99.90;;;;;;5071436;28;20632;-59
2022/09/06 12:48:43;;;;;;;2.93;1.43;;;29.40;99.90;;;;;;5071708;28;20233;-58
2022/09/06 12:51:18;;;;;;;2.55;1.27;;;29.60;99.90;;;;;;5071515;28;20647;-59
2022/09/06 12:53:53;;;;;;;2.40;1.13;;;29.70;99.90;;;;;;5071557;28;20217;-60
2022/09/06 12:56:21;;;;;;;2.00;1.10;;;29.50;99.90;;;;;;5071238;28;20204;-60
2022/09/06 12:58:48;;;;;;;4.40;1.60;;;29.60;99.90;;;;;;5071665;28;20716;-60
2022/09/06 13:01:21;;;;;;;4.25;1.40;;;29.60;99.90;;;;;;5071191;28;20266;-58
2022/09/06 13:03:55;;;;;;;4.03;1.30;;;29.70;99.90;;;;;;5071598;28;20239;-60